createdAt,value
2019-03-29T00:01:13.723Z,2.30
2019-03-29T00:03:42.379Z,2.65
2019-03-29T00:06:11.103Z,2.47
2019-03-29T00:08:39.770Z,2.58
2019-03-29T00:11:08.405Z,2.10
2019-03-29T00:13:37.123Z,2.50
2019-03-29T00:16:05.720Z,2.72
2019-03-29T00:18:34.492Z,2.50
2019-03-29T00:21:04.071Z,3.05
2019-03-29T00:23:32.671Z,2.83
2019-03-29T00:26:01.295Z,3.35
2019-03-29T00:28:29.883Z,3.58
2019-03-29T00:30:58.480Z,3.65
2019-03-29T00:33:27.324Z,4.15
2019-03-29T00:35:55.953Z,3.72
2019-03-29T00:38:24.565Z,3.85
2019-03-29T00:40:53.147Z,3.98
2019-03-29T00:43:21.873Z,4.67
2019-03-29T00:45:50.422Z,5.00
2019-03-29T00:48:19.101Z,4.92
2019-03-29T00:50:47.705Z,5.35
2019-03-29T00:53:16.432Z,4.87
2019-03-29T00:55:44.992Z,5.03
2019-03-29T00:58:13.600Z,5.78
2019-03-29T01:00:42.225Z,5.35
2019-03-29T01:03:11.027Z,6.42
2019-03-29T01:05:39.870Z,7.17
2019-03-29T01:08:10.478Z,6.62
2019-03-29T01:10:39.117Z,7.87
2019-03-29T01:13:07.774Z,7.60
2019-03-29T01:15:36.475Z,6.70
2019-03-29T01:18:05.229Z,7.67
2019-03-29T01:20:33.966Z,8.18
2019-03-29T01:23:02.557Z,7.33
2019-03-29T01:25:31.283Z,7.30
2019-03-29T01:27:59.845Z,7.92
2019-03-29T01:30:28.594Z,8.00
2019-03-29T01:32:57.194Z,7.55
2019-03-29T01:35:25.920Z,6.97
2019-03-29T01:37:54.514Z,7.45
2019-03-29T01:40:23.191Z,7.47
2019-03-29T01:42:51.789Z,8.25
2019-03-29T01:45:20.539Z,7.75
2019-03-29T01:47:49.125Z,7.20
2019-03-29T01:50:17.855Z,7.72
2019-03-29T01:52:46.510Z,8.05
2019-03-29T01:55:15.171Z,8.50
2019-03-29T01:57:43.742Z,9.38
2019-03-29T02:00:15.441Z,8.93
2019-03-29T02:02:44.111Z,9.18
2019-03-29T02:05:12.767Z,9.80
2019-03-29T02:07:41.333Z,9.05
2019-03-29T02:10:10.382Z,9.60
2019-03-29T02:12:39.058Z,8.85
2019-03-29T02:15:09.261Z,8.28
2019-03-29T02:17:38.349Z,9.78
2019-03-29T02:20:07.639Z,9.93
2019-03-29T02:22:37.091Z,10.15
2019-03-29T02:25:08.589Z,10.05
2019-03-29T02:27:37.473Z,9.53
2019-03-29T02:30:07.581Z,9.18
2019-03-29T02:32:36.235Z,8.95
2019-03-29T02:35:05.478Z,11.20
2019-03-29T02:37:34.243Z,10.25
2019-03-29T02:40:03.166Z,10.20
2019-03-29T02:42:31.785Z,9.58
2019-03-29T02:45:00.628Z,10.35
2019-03-29T02:47:29.205Z,9.05
2019-03-29T02:49:57.880Z,9.18
2019-03-29T02:52:26.522Z,8.90
2019-03-29T02:54:55.244Z,9.23
2019-03-29T02:57:23.851Z,10.43
2019-03-29T02:59:52.536Z,9.73
2019-03-29T03:02:25.957Z,8.55
2019-03-29T03:04:51.662Z,9.58
2019-03-29T03:07:20.307Z,9.00
2019-03-29T03:09:48.934Z,9.23
2019-03-29T03:12:17.515Z,9.98
2019-03-29T03:14:46.188Z,11.65
2019-03-29T03:17:14.779Z,9.93
2019-03-29T03:19:43.372Z,10.53
2019-03-29T03:22:11.987Z,9.28
2019-03-29T03:24:40.612Z,9.00
2019-03-29T03:27:09.294Z,9.20
2019-03-29T03:29:37.867Z,8.40
2019-03-29T03:32:06.566Z,9.78
2019-03-29T03:34:35.155Z,9.80
2019-03-29T03:37:03.783Z,9.13
2019-03-29T03:39:32.786Z,8.55
2019-03-29T03:42:01.521Z,15.72
2019-03-29T03:44:30.248Z,9.95
2019-03-29T03:46:58.871Z,10.08
2019-03-29T03:49:27.470Z,11.43
2019-03-29T03:51:56.331Z,8.58
2019-03-29T03:54:25.169Z,10.63
2019-03-29T03:56:54.409Z,11.65
2019-03-29T03:59:25.533Z,10.82
2019-03-29T04:01:54.156Z,8.95
2019-03-29T04:04:22.892Z,10.03
2019-03-29T04:06:51.503Z,10.80
2019-03-29T04:09:20.110Z,9.73
2019-03-29T04:11:48.721Z,10.60
2019-03-29T04:14:17.283Z,10.05
2019-03-29T04:16:45.974Z,10.95
2019-03-29T04:19:14.596Z,11.95
2019-03-29T04:21:43.259Z,10.80
2019-03-29T04:24:11.870Z,11.68
2019-03-29T04:26:40.455Z,11.00
2019-03-29T04:29:09.081Z,11.22
2019-03-29T04:31:37.777Z,10.80
2019-03-29T04:34:06.595Z,11.12
2019-03-29T04:36:35.401Z,11.93
2019-03-29T04:39:05.225Z,13.28
2019-03-29T04:41:33.861Z,11.97
2019-03-29T04:44:02.700Z,13.03
2019-03-29T04:46:31.337Z,12.73
2019-03-29T04:48:59.978Z,14.45
2019-03-29T04:51:28.753Z,16.25
2019-03-29T04:53:57.392Z,12.68
2019-03-29T04:56:26.053Z,12.37
2019-03-29T04:58:54.771Z,14.93
2019-03-29T05:01:23.460Z,18.67
2019-03-29T05:03:52.029Z,18.98
2019-03-29T05:06:20.706Z,18.10
2019-03-29T05:08:49.336Z,18.45
2019-03-29T05:11:17.994Z,22.60
2019-03-29T05:13:46.574Z,20.85
2019-03-29T05:16:15.273Z,18.25
2019-03-29T05:18:43.882Z,20.32
2019-03-29T05:21:12.506Z,22.98
2019-03-29T05:23:41.098Z,21.48
2019-03-29T05:26:09.745Z,21.75
2019-03-29T05:28:38.427Z,20.25
2019-03-29T05:31:07.019Z,20.70
2019-03-29T05:33:35.593Z,21.95
2019-03-29T05:36:04.260Z,20.52
2019-03-29T05:38:32.830Z,23.95
2019-03-29T05:41:01.418Z,22.32
2019-03-29T05:43:30.094Z,23.35
2019-03-29T05:45:58.797Z,19.67
2019-03-29T05:48:27.482Z,21.15
2019-03-29T05:50:56.115Z,19.48
2019-03-29T05:53:24.750Z,18.30
2019-03-29T05:55:53.381Z,18.52
2019-03-29T05:58:21.991Z,21.95
2019-03-29T06:00:50.661Z,21.07
2019-03-29T06:03:19.418Z,17.82
2019-03-29T06:05:47.959Z,16.02
2019-03-29T06:08:16.559Z,14.73
2019-03-29T06:10:49.308Z,15.60
2019-03-29T06:13:16.998Z,16.57
2019-03-29T06:15:45.577Z,14.70
2019-03-29T06:18:14.205Z,14.30
2019-03-29T06:20:42.830Z,12.28
2019-03-29T06:23:11.500Z,14.93
2019-03-29T06:25:40.098Z,16.73
2019-03-29T06:28:08.786Z,16.10
2019-03-29T06:30:37.306Z,12.30
2019-03-29T06:33:05.910Z,13.53
2019-03-29T06:35:36.678Z,13.22
2019-03-29T06:38:07.827Z,14.30
2019-03-29T06:40:36.992Z,14.13
2019-03-29T06:43:05.604Z,13.48
2019-03-29T06:45:47.212Z,12.98
2019-03-29T06:48:04.689Z,11.83
2019-03-29T06:50:33.389Z,12.05
2019-03-29T06:53:01.937Z,9.95
2019-03-29T06:55:31.798Z,11.38
2019-03-29T06:58:00.517Z,12.80
2019-03-29T07:00:29.343Z,13.38
2019-03-29T07:02:58.135Z,13.40
2019-03-29T07:05:26.922Z,11.63
2019-03-29T07:07:55.604Z,10.88
2019-03-29T07:10:24.457Z,11.83
2019-03-29T07:12:56.277Z,9.25
2019-03-29T07:15:23.700Z,10.28
2019-03-29T07:17:52.374Z,10.40
2019-03-29T07:20:20.996Z,10.20
2019-03-29T07:22:49.582Z,8.45
2019-03-29T07:25:18.169Z,8.88
2019-03-29T07:27:52.103Z,7.83
2019-03-29T07:30:17.209Z,11.73
2019-03-29T07:32:46.014Z,7.75
2019-03-29T07:35:14.809Z,8.65
2019-03-29T07:37:43.459Z,9.60
2019-03-29T07:40:12.606Z,11.38
2019-03-29T07:42:41.373Z,10.55
2019-03-29T07:45:10.661Z,8.08
2019-03-29T07:47:40.257Z,6.58
2019-03-29T07:50:09.199Z,6.65
2019-03-29T07:52:37.771Z,5.62
2019-03-29T07:55:07.890Z,5.92
2019-03-29T07:57:36.585Z,6.00
2019-03-29T08:00:09.441Z,6.37
2019-03-29T08:05:07.157Z,6.22
2019-03-29T08:07:35.819Z,5.45
2019-03-29T08:10:05.935Z,5.65
2019-03-29T08:12:35.227Z,5.15
2019-03-29T08:15:09.138Z,5.33
2019-03-29T08:17:36.088Z,7.03
2019-03-29T08:20:37.413Z,6.30
2019-03-29T08:22:36.069Z,4.10
2019-03-29T08:25:04.901Z,4.60
2019-03-29T08:27:35.860Z,4.47
2019-03-29T08:30:06.642Z,5.08
2019-03-29T08:32:35.326Z,4.80
2019-03-29T08:35:06.658Z,4.53
2019-03-29T08:37:35.412Z,5.30
2019-03-29T08:40:05.414Z,5.47
2019-03-29T08:42:34.116Z,4.42
2019-03-29T08:45:02.909Z,4.87
2019-03-29T08:47:31.503Z,4.40
2019-03-29T08:50:00.302Z,4.92
2019-03-29T08:52:29.040Z,4.30
2019-03-29T08:54:57.767Z,3.83
2019-03-29T08:57:26.390Z,5.15
2019-03-29T08:59:55.129Z,3.12
2019-03-29T09:02:25.210Z,3.47
2019-03-29T09:04:54.168Z,4.08
2019-03-29T09:07:22.769Z,5.50
2019-03-29T09:09:51.431Z,4.78
2019-03-29T09:12:20.201Z,3.40
2019-03-29T09:14:48.834Z,5.17
2019-03-29T09:17:17.428Z,3.70
2019-03-29T09:19:46.207Z,3.08
2019-03-29T09:22:15.585Z,3.83
2019-03-29T09:24:44.339Z,4.67
2019-03-29T09:27:13.008Z,5.20
2019-03-29T09:29:41.706Z,3.92
2019-03-29T09:32:11.361Z,3.40
2019-03-29T09:34:39.976Z,3.45
2019-03-29T09:37:08.541Z,2.35
2019-03-29T09:39:37.384Z,3.80
2019-03-29T09:42:09.426Z,3.22
2019-03-29T09:44:36.588Z,2.90
2019-03-29T09:47:05.272Z,3.20
2019-03-29T09:49:33.951Z,2.40
2019-03-29T09:52:02.789Z,3.98
2019-03-29T09:54:31.436Z,2.95
2019-03-29T09:57:00.121Z,4.60
2019-03-29T09:59:28.727Z,1.90
2019-03-29T10:01:57.358Z,2.08
2019-03-29T10:04:25.954Z,3.50
2019-03-29T10:06:54.525Z,3.30
2019-03-29T10:09:23.134Z,2.70
2019-03-29T10:11:51.748Z,3.17
2019-03-29T10:14:20.345Z,3.20
2019-03-29T10:16:48.997Z,2.70
2019-03-29T10:19:17.674Z,2.20
2019-03-29T10:21:46.275Z,3.65
2019-03-29T10:24:14.949Z,4.03
2019-03-29T10:26:43.649Z,2.02
2019-03-29T10:29:12.248Z,2.77
2019-03-29T10:31:40.859Z,5.08
2019-03-29T10:34:09.615Z,3.52
2019-03-29T10:36:38.232Z,3.37
2019-03-29T10:39:09.905Z,3.22
2019-03-29T10:41:38.592Z,3.50
2019-03-29T10:44:07.343Z,3.25
2019-03-29T10:46:36.041Z,3.30
2019-03-29T10:49:04.781Z,3.05
2019-03-29T10:51:33.583Z,3.75
2019-03-29T10:54:02.208Z,1.98
2019-03-29T10:56:34.304Z,2.12
2019-03-29T10:59:01.202Z,3.17
2019-03-29T11:01:29.846Z,3.37
2019-03-29T11:03:58.631Z,2.47
2019-03-29T11:06:27.325Z,2.40
2019-03-29T11:08:55.893Z,1.92
2019-03-29T11:11:24.568Z,2.75
2019-03-29T11:13:56.390Z,2.70
2019-03-29T11:16:23.686Z,1.87
2019-03-29T11:18:53.949Z,2.15
2019-03-29T11:21:22.517Z,2.02
2019-03-29T11:23:51.181Z,3.50
2019-03-29T11:26:19.905Z,3.55
2019-03-29T11:28:48.575Z,3.00
2019-03-29T11:31:17.328Z,2.75
2019-03-29T11:33:45.893Z,2.45
2019-03-29T11:36:14.776Z,2.42
2019-03-29T11:38:43.467Z,2.33
2019-03-29T11:41:12.176Z,4.05
2019-03-29T11:43:40.939Z,2.87
2019-03-29T11:46:09.567Z,2.75
2019-03-29T11:48:38.322Z,3.17
2019-03-29T11:51:18.757Z,2.65
2019-03-29T11:53:37.266Z,2.05
2019-03-29T11:56:06.022Z,2.83
2019-03-29T11:58:34.809Z,2.25
2019-03-29T12:01:05.513Z,2.87
2019-03-29T12:03:33.785Z,2.70
2019-03-29T12:06:02.528Z,2.52
2019-03-29T12:08:31.264Z,3.02
2019-03-29T12:10:59.906Z,3.33
2019-03-29T12:13:40.524Z,2.80
2019-03-29T12:15:58.914Z,3.00
2019-03-29T12:18:27.637Z,3.95
2019-03-29T12:20:56.201Z,3.80
2019-03-29T12:23:25.470Z,3.62
2019-03-29T12:25:54.298Z,3.37
2019-03-29T12:28:23.058Z,2.95
2019-03-29T12:30:52.684Z,3.52
2019-03-29T12:33:21.364Z,4.45
2019-03-29T12:35:49.950Z,2.98
2019-03-29T12:38:18.545Z,3.55
2019-03-29T12:40:47.127Z,2.60
2019-03-29T12:43:15.838Z,2.80
2019-03-29T12:45:44.416Z,3.40
2019-03-29T12:48:13.497Z,3.80
2019-03-29T12:50:42.220Z,4.37
2019-03-29T12:53:10.882Z,2.90
2019-03-29T12:55:39.568Z,2.60
2019-03-29T12:58:08.235Z,3.45
2019-03-29T13:00:37.170Z,4.53
2019-03-29T13:03:05.926Z,4.97
2019-03-29T13:05:34.561Z,3.00
2019-03-29T13:08:03.244Z,2.70
2019-03-29T13:10:31.987Z,3.85
2019-03-29T13:13:00.996Z,3.50
2019-03-29T13:15:29.811Z,3.12
2019-03-29T13:17:58.561Z,3.02
2019-03-29T13:20:27.205Z,2.75
2019-03-29T13:22:55.769Z,3.45
2019-03-29T13:25:24.762Z,4.20
2019-03-29T13:27:57.559Z,3.77
2019-03-29T13:30:24.025Z,3.83
2019-03-29T13:32:52.602Z,3.22
2019-03-29T13:35:21.285Z,4.90
2019-03-29T13:37:49.874Z,3.60
2019-03-29T13:40:21.169Z,3.55
2019-03-29T13:42:48.924Z,3.40
2019-03-29T13:45:17.606Z,3.55
2019-03-29T13:47:47.274Z,3.35
2019-03-29T13:50:16.101Z,3.47
2019-03-29T13:52:44.837Z,3.60
2019-03-29T13:55:13.633Z,2.85
2019-03-29T13:57:42.479Z,3.37
2019-03-29T14:00:12.387Z,3.30
2019-03-29T14:02:41.045Z,3.98
2019-03-29T14:05:10.087Z,3.60
2019-03-29T14:07:38.677Z,3.60
2019-03-29T14:10:09.687Z,3.40
2019-03-29T14:12:39.215Z,2.98
2019-03-29T14:15:10.220Z,3.70
2019-03-29T14:17:38.869Z,3.90
2019-03-29T14:20:09.081Z,3.42
2019-03-29T14:22:37.746Z,3.15
2019-03-29T14:25:07.658Z,3.52
2019-03-29T14:27:36.345Z,3.35
2019-03-29T14:30:06.695Z,4.15
2019-03-29T14:32:35.290Z,3.55
2019-03-29T14:35:06.309Z,4.28
2019-03-29T14:37:35.055Z,4.20
2019-03-29T14:40:05.812Z,3.90
2019-03-29T14:42:34.400Z,2.85
2019-03-29T14:45:03.860Z,3.15
2019-03-29T14:47:41.230Z,4.30
2019-03-29T14:50:03.148Z,3.25
2019-03-29T14:52:31.817Z,4.12
2019-03-29T14:55:00.496Z,3.52
2019-03-29T14:57:29.146Z,3.05
2019-03-29T14:59:58.145Z,3.50
2019-03-29T15:02:26.712Z,3.77
2019-03-29T15:04:55.419Z,4.10
2019-03-29T15:07:24.021Z,3.90
2019-03-29T15:09:52.963Z,4.22
2019-03-29T15:12:21.533Z,4.17
2019-03-29T15:14:50.182Z,3.37
2019-03-29T15:17:21.345Z,5.58
2019-03-29T15:19:49.016Z,3.42
2019-03-29T15:22:17.748Z,3.70
2019-03-29T15:24:46.476Z,4.97
2019-03-29T15:27:15.089Z,4.25
2019-03-29T15:29:43.761Z,3.83
2019-03-29T15:32:12.388Z,5.08
2019-03-29T15:34:40.981Z,4.45
2019-03-29T15:37:10.173Z,4.30
2019-03-29T15:39:39.205Z,4.05
2019-03-29T15:42:07.811Z,6.10
2019-03-29T15:44:36.408Z,4.85
2019-03-29T15:47:05.035Z,12.80
2019-03-29T15:49:33.714Z,6.83
2019-03-29T15:52:02.416Z,6.85
2019-03-29T15:54:31.020Z,5.47
2019-03-29T15:56:59.630Z,5.85
2019-03-29T15:59:28.324Z,4.90
2019-03-29T16:01:57.121Z,5.83
2019-03-29T16:04:25.822Z,6.33
2019-03-29T16:06:54.454Z,10.28
2019-03-29T16:09:23.073Z,5.35
2019-03-29T16:11:51.773Z,5.25
2019-03-29T16:14:20.311Z,7.05
2019-03-29T16:16:49.028Z,5.00
2019-03-29T16:19:17.673Z,9.15
2019-03-29T16:21:46.317Z,7.58
2019-03-29T16:24:14.971Z,7.80
2019-03-29T16:26:43.533Z,7.95
2019-03-29T16:29:12.164Z,6.90
2019-03-29T16:31:40.786Z,11.70
2019-03-29T16:34:10.553Z,6.47
2019-03-29T16:36:39.230Z,6.45
2019-03-29T16:39:08.675Z,6.00
2019-03-29T16:41:37.575Z,6.15
2019-03-29T16:44:06.315Z,6.70
2019-03-29T16:46:35.066Z,6.80
2019-03-29T16:49:03.761Z,6.83
2019-03-29T16:51:32.439Z,7.60
2019-03-29T16:54:01.035Z,8.50
2019-03-29T16:56:29.813Z,17.80
2019-03-29T16:58:58.429Z,11.55
2019-03-29T17:01:27.039Z,8.00
2019-03-29T17:03:55.691Z,8.35
2019-03-29T17:06:24.291Z,8.40
2019-03-29T17:08:52.902Z,10.15
2019-03-29T17:11:21.473Z,9.28
2019-03-29T17:13:50.236Z,8.75
2019-03-29T17:16:29.875Z,9.23
2019-03-29T17:18:49.313Z,9.65
2019-03-29T17:21:17.860Z,10.10
2019-03-29T17:23:46.401Z,10.13
2019-03-29T17:26:15.247Z,12.70
2019-03-29T17:28:43.860Z,11.08
2019-03-29T17:31:14.137Z,13.90
2019-03-29T17:33:42.773Z,18.42
2019-03-29T17:36:11.444Z,20.32
2019-03-29T17:38:40.159Z,16.52
2019-03-29T17:41:08.800Z,16.90
2019-03-29T17:43:37.383Z,12.63
2019-03-29T17:46:16.042Z,14.28
2019-03-29T17:48:36.401Z,18.67
2019-03-29T17:51:05.146Z,10.88
2019-03-29T17:53:33.761Z,11.50
2019-03-29T17:56:02.347Z,15.80
2019-03-29T17:58:31.018Z,11.83
2019-03-29T18:00:59.782Z,12.95
2019-03-29T18:03:28.404Z,13.85
2019-03-29T18:05:57.052Z,11.00
2019-03-29T18:08:25.748Z,12.33
2019-03-29T18:10:54.341Z,11.12
2019-03-29T18:13:22.939Z,14.18
2019-03-29T18:15:51.576Z,14.03
2019-03-29T18:18:20.332Z,17.23
2019-03-29T18:20:49.010Z,15.23
2019-03-29T18:23:17.674Z,13.72
2019-03-29T18:25:46.502Z,14.68
2019-03-29T18:28:15.136Z,15.45
2019-03-29T18:30:44.159Z,14.20
2019-03-29T18:33:12.788Z,14.03
2019-03-29T18:35:41.494Z,16.90
2019-03-29T18:38:10.115Z,15.15
2019-03-29T18:40:38.810Z,17.35
2019-03-29T18:43:07.413Z,17.25
2019-03-29T18:45:36.166Z,17.48
2019-03-29T18:48:05.102Z,18.30
2019-03-29T18:50:33.911Z,15.68
2019-03-29T18:53:02.647Z,16.27
2019-03-29T18:55:31.382Z,17.05
2019-03-29T18:58:00.043Z,15.63
2019-03-29T19:00:30.583Z,17.00
2019-03-29T19:02:59.251Z,16.73
2019-03-29T19:05:28.371Z,16.12
2019-03-29T19:07:57.148Z,17.15
2019-03-29T19:10:25.854Z,16.60
2019-03-29T19:12:54.437Z,14.95
2019-03-29T19:15:23.242Z,14.45
2019-03-29T19:17:52.376Z,16.57
2019-03-29T19:20:27.430Z,16.48
2019-03-29T19:22:51.429Z,17.55
2019-03-29T19:25:20.007Z,18.35
2019-03-29T19:27:48.578Z,15.55
2019-03-29T19:30:17.518Z,18.00
2019-03-29T19:32:46.136Z,16.07
2019-03-29T19:35:14.910Z,16.50
2019-03-29T19:37:43.485Z,16.30
2019-03-29T19:40:12.532Z,13.95
2019-03-29T19:42:41.175Z,16.30
2019-03-29T19:45:11.781Z,12.45
2019-03-29T19:47:40.454Z,15.48
2019-03-29T19:50:09.668Z,24.15
2019-03-29T19:52:38.263Z,20.77
2019-03-29T19:55:07.005Z,19.42
2019-03-29T19:57:35.731Z,14.43
2019-03-29T20:00:07.387Z,21.65
2019-03-29T20:02:36.078Z,17.15
2019-03-29T20:05:06.013Z,18.52
2019-03-29T20:07:34.749Z,16.23
2019-03-29T20:10:05.076Z,17.80
2019-03-29T20:12:33.763Z,14.93
2019-03-29T20:15:02.404Z,15.58
2019-03-29T20:17:31.005Z,16.07
2019-03-29T20:19:59.677Z,13.90
2019-03-29T20:22:28.386Z,12.90
2019-03-29T20:24:56.946Z,13.00
2019-03-29T20:27:25.538Z,15.18
2019-03-29T20:29:54.113Z,14.85
2019-03-29T20:32:22.718Z,12.18
2019-03-29T20:34:51.358Z,12.80
2019-03-29T20:37:20.001Z,13.13
2019-03-29T20:39:48.646Z,13.13
2019-03-29T20:42:17.238Z,12.63
2019-03-29T20:44:45.835Z,13.70
2019-03-29T20:47:14.425Z,13.25
2019-03-29T20:49:43.029Z,13.88
2019-03-29T20:52:11.632Z,14.45
2019-03-29T20:54:40.387Z,15.90
2019-03-29T20:57:08.917Z,16.35
2019-03-29T20:59:37.541Z,14.53
2019-03-29T21:02:06.409Z,14.07
2019-03-29T21:04:35.022Z,16.15
2019-03-29T21:07:03.612Z,13.70
2019-03-29T21:09:32.221Z,14.60
2019-03-29T21:12:00.919Z,12.85
2019-03-29T21:14:29.489Z,12.88
2019-03-29T21:16:58.226Z,13.18
2019-03-29T21:19:26.847Z,12.43
2019-03-29T21:21:55.413Z,12.45
2019-03-29T21:24:23.997Z,12.63
2019-03-29T21:26:52.586Z,12.90
2019-03-29T21:29:21.280Z,12.03
2019-03-29T21:31:49.837Z,12.68
2019-03-29T21:34:18.542Z,13.15
2019-03-29T21:36:47.111Z,12.33
2019-03-29T21:39:15.802Z,11.90
2019-03-29T21:41:44.389Z,12.55
2019-03-29T21:44:13.074Z,11.85
2019-03-29T21:46:41.658Z,11.38
2019-03-29T21:49:10.298Z,11.43
2019-03-29T21:51:38.994Z,11.28
2019-03-29T21:54:07.666Z,10.40
2019-03-29T21:56:36.289Z,10.63
2019-03-29T21:59:05.081Z,10.10
2019-03-29T22:01:33.724Z,11.33
2019-03-29T22:04:02.346Z,15.05
2019-03-29T22:06:31.041Z,12.68
2019-03-29T22:08:59.623Z,12.28
2019-03-29T22:11:28.227Z,10.63
2019-03-29T22:13:56.886Z,11.33
2019-03-29T22:16:25.709Z,9.93
2019-03-29T22:18:54.316Z,10.28
2019-03-29T22:21:22.910Z,10.35
2019-03-29T22:23:51.486Z,10.25
2019-03-29T22:26:20.170Z,10.75
2019-03-29T22:28:48.891Z,9.55
2019-03-29T22:31:17.532Z,9.03
2019-03-29T22:33:46.203Z,9.50
2019-03-29T22:36:14.792Z,8.90
2019-03-29T22:38:43.384Z,8.80
2019-03-29T22:41:12.023Z,9.08
2019-03-29T22:43:40.699Z,8.13
2019-03-29T22:46:09.265Z,11.08
2019-03-29T22:48:51.223Z,9.05
2019-03-29T22:51:08.216Z,9.73
2019-03-29T22:53:36.890Z,10.10
2019-03-29T22:56:05.504Z,10.68
2019-03-29T22:58:34.159Z,9.78
2019-03-29T23:01:04.989Z,11.55
2019-03-29T23:03:33.647Z,12.78
2019-03-29T23:06:02.351Z,12.23
2019-03-29T23:08:31.147Z,12.95
2019-03-29T23:10:59.729Z,10.80
2019-03-29T23:13:28.382Z,12.65
2019-03-29T23:15:56.985Z,12.85
2019-03-29T23:18:25.596Z,13.10
2019-03-29T23:20:54.196Z,13.72
2019-03-29T23:23:22.761Z,10.98
2019-03-29T23:25:51.448Z,11.93
2019-03-29T23:28:20.155Z,10.80
2019-03-29T23:30:48.786Z,14.95
2019-03-29T23:33:17.444Z,10.70
2019-03-29T23:35:46.086Z,11.00
2019-03-29T23:38:14.687Z,9.43
2019-03-29T23:40:43.343Z,10.28
2019-03-29T23:43:12.010Z,10.58
2019-03-29T23:45:40.651Z,12.37
2019-03-29T23:48:09.276Z,10.03
2019-03-29T23:50:37.913Z,13.25
2019-03-29T23:53:06.621Z,10.70
2019-03-29T23:55:35.241Z,9.43
2019-03-29T23:58:03.914Z,8.43
